sensor_id;sensor_type;location;lat;lon;timestamp;pressure;altitude;pressure_sealevel;temperature;humidity
48404;BME280;34202;52.536;6.042;2022-11-20T00:01:37;101522.10;;;-2.13;88.10
48404;BME280;34202;52.536;6.042;2022-11-20T00:06:37;101526.21;;;-2.15;88.36
48404;BME280;34202;52.536;6.042;2022-11-20T00:11:38;101520.01;;;-2.19;88.31
48404;BME280;34202;52.536;6.042;2022-11-20T00:16:38;101511.13;;;-2.21;88.27
48404;BME280;34202;52.536;6.042;2022-11-20T00:21:38;101511.71;;;-2.28;88.22
48404;BME280;34202;52.536;6.042;2022-11-20T00:26:39;101504.30;;;-2.41;88.08
48404;BME280;34202;52.536;6.042;2022-11-20T00:31:39;101496.85;;;-2.45;88.46
48404;BME280;34202;52.536;6.042;2022-11-20T00:36:39;101490.55;;;-2.45;88.76
48404;BME280;34202;52.536;6.042;2022-11-20T00:41:39;101493.71;;;-2.48;89.07
48404;BME280;34202;52.536;6.042;2022-11-20T00:46:40;101499.17;;;-2.54;89.08
48404;BME280;34202;52.536;6.042;2022-11-20T00:51:40;101501.89;;;-2.56;89.04
48404;BME280;34202;52.536;6.042;2022-11-20T00:56:40;101502.48;;;-2.60;89.21
48404;BME280;34202;52.536;6.042;2022-11-20T01:01:41;101495.81;;;-2.60;89.30
48404;BME280;34202;52.536;6.042;2022-11-20T01:06:41;101493.32;;;-2.60;89.33
48404;BME280;34202;52.536;6.042;2022-11-20T01:11:43;101491.15;;;-2.61;89.45
48404;BME280;34202;52.536;6.042;2022-11-20T01:16:47;101495.23;;;-2.61;89.43
48404;BME280;34202;52.536;6.042;2022-11-20T01:21:50;101497.14;;;-2.61;89.48
48404;BME280;34202;52.536;6.042;2022-11-20T01:26:51;101491.73;;;-2.63;89.46
48404;BME280;34202;52.536;6.042;2022-11-20T01:31:52;101485.27;;;-2.65;89.13
48404;BME280;34202;52.536;6.042;2022-11-20T01:36:53;101480.52;;;-2.67;89.08
48404;BME280;34202;52.536;6.042;2022-11-20T01:41:55;101476.48;;;-2.68;89.33
48404;BME280;34202;52.536;6.042;2022-11-20T01:47:17;101464.56;;;-2.71;89.20
48404;BME280;34202;52.536;6.042;2022-11-20T01:52:23;101456.71;;;-2.74;89.11
48404;BME280;34202;52.536;6.042;2022-11-20T01:57:25;101447.93;;;-2.75;89.48
48404;BME280;34202;52.536;6.042;2022-11-20T02:02:27;101449.22;;;-2.76;89.51
48404;BME280;34202;52.536;6.042;2022-11-20T02:07:28;101444.99;;;-2.78;89.47
48404;BME280;34202;52.536;6.042;2022-11-20T02:12:28;101439.40;;;-2.80;89.50
48404;BME280;34202;52.536;6.042;2022-11-20T02:17:48;101434.40;;;-2.83;89.62
48404;BME280;34202;52.536;6.042;2022-11-20T02:23:02;101437.13;;;-2.88;89.52
48404;BME280;34202;52.536;6.042;2022-11-20T02:28:04;101441.28;;;-2.97;89.57
48404;BME280;34202;52.536;6.042;2022-11-20T02:33:05;101438.99;;;-3.05;89.75
48404;BME280;34202;52.536;6.042;2022-11-20T02:38:06;101441.48;;;-3.18;89.27
48404;BME280;34202;52.536;6.042;2022-11-20T02:43:07;101436.85;;;-3.31;89.74
48404;BME280;34202;52.536;6.042;2022-11-20T02:48:07;101438.10;;;-3.34;89.74
48404;BME280;34202;52.536;6.042;2022-11-20T02:53:08;101437.48;;;-3.36;90.33
48404;BME280;34202;52.536;6.042;2022-11-20T02:58:08;101429.98;;;-3.34;90.24
48404;BME280;34202;52.536;6.042;2022-11-20T03:03:08;101430.10;;;-3.29;90.61
48404;BME280;34202;52.536;6.042;2022-11-20T03:08:09;101428.91;;;-3.27;90.50
48404;BME280;34202;52.536;6.042;2022-11-20T03:13:09;101431.95;;;-3.25;90.63
48404;BME280;34202;52.536;6.042;2022-11-20T03:18:10;101431.05;;;-3.23;90.85
48404;BME280;34202;52.536;6.042;2022-11-20T03:23:10;101425.63;;;-3.20;90.92
48404;BME280;34202;52.536;6.042;2022-11-20T03:28:10;101413.82;;;-3.19;90.84
48404;BME280;34202;52.536;6.042;2022-11-20T03:33:10;101410.92;;;-3.19;91.23
48404;BME280;34202;52.536;6.042;2022-11-20T03:38:11;101404.09;;;-3.19;91.41
48404;BME280;34202;52.536;6.042;2022-11-20T03:43:11;101398.39;;;-3.18;91.37
48404;BME280;34202;52.536;6.042;2022-11-20T03:48:11;101390.30;;;-3.17;91.45
48404;BME280;34202;52.536;6.042;2022-11-20T03:53:12;101375.86;;;-3.17;91.08
48404;BME280;34202;52.536;6.042;2022-11-20T03:58:12;101372.09;;;-3.17;91.15
48404;BME280;34202;52.536;6.042;2022-11-20T04:03:13;101378.18;;;-3.18;91.48
48404;BME280;34202;52.536;6.042;2022-11-20T04:08:13;101375.56;;;-3.18;91.45
48404;BME280;34202;52.536;6.042;2022-11-20T04:13:14;101376.02;;;-3.19;91.08
48404;BME280;34202;52.536;6.042;2022-11-20T04:18:14;101377.13;;;-3.20;91.21
48404;BME280;34202;52.536;6.042;2022-11-20T04:23:14;101370.20;;;-3.22;91.08
48404;BME280;34202;52.536;6.042;2022-11-20T04:28:14;101363.02;;;-3.22;91.07
48404;BME280;34202;52.536;6.042;2022-11-20T04:33:15;101360.76;;;-3.25;91.14
48404;BME280;34202;52.536;6.042;2022-11-20T04:38:15;101370.35;;;-3.30;90.77
48404;BME280;34202;52.536;6.042;2022-11-20T04:43:15;101362.23;;;-3.32;91.00
48404;BME280;34202;52.536;6.042;2022-11-20T04:48:16;101356.34;;;-3.33;90.93
48404;BME280;34202;52.536;6.042;2022-11-20T04:53:16;101351.00;;;-3.34;91.11
48404;BME280;34202;52.536;6.042;2022-11-20T04:58:17;101343.52;;;-3.34;90.99
48404;BME280;34202;52.536;6.042;2022-11-20T05:03:17;101336.23;;;-3.35;91.21
48404;BME280;34202;52.536;6.042;2022-11-20T05:08:17;101331.27;;;-3.36;91.17
48404;BME280;34202;52.536;6.042;2022-11-20T05:13:18;101337.05;;;-3.38;91.36
48404;BME280;34202;52.536;6.042;2022-11-20T05:18:18;101329.53;;;-3.39;91.41
48404;BME280;34202;52.536;6.042;2022-11-20T05:23:18;101325.60;;;-3.41;91.16
48404;BME280;34202;52.536;6.042;2022-11-20T05:28:19;101324.37;;;-3.45;91.39
48404;BME280;34202;52.536;6.042;2022-11-20T05:33:20;101329.08;;;-3.50;91.05
48404;BME280;34202;52.536;6.042;2022-11-20T05:38:20;101333.30;;;-3.55;91.10
48404;BME280;34202;52.536;6.042;2022-11-20T05:43:21;101330.46;;;-3.59;91.36
48404;BME280;34202;52.536;6.042;2022-11-20T05:48:21;101333.08;;;-3.63;91.04
48404;BME280;34202;52.536;6.042;2022-11-20T05:53:21;101324.73;;;-3.65;91.36
48404;BME280;34202;52.536;6.042;2022-11-20T05:58:22;101318.73;;;-3.66;91.59
48404;BME280;34202;52.536;6.042;2022-11-20T06:03:22;101317.51;;;-3.67;91.66
48404;BME280;34202;52.536;6.042;2022-11-20T06:08:22;101319.83;;;-3.68;91.78
48404;BME280;34202;52.536;6.042;2022-11-20T06:13:23;101318.89;;;-3.71;92.01
48404;BME280;34202;52.536;6.042;2022-11-20T06:18:26;101315.20;;;-3.73;92.06
48404;BME280;34202;52.536;6.042;2022-11-20T06:23:29;101313.58;;;-3.72;92.14
48404;BME280;34202;52.536;6.042;2022-11-20T06:28:29;101313.95;;;-3.71;92.13
48404;BME280;34202;52.536;6.042;2022-11-20T06:33:30;101311.17;;;-3.72;92.39
48404;BME280;34202;52.536;6.042;2022-11-20T06:38:30;101308.60;;;-3.73;92.35
48404;BME280;34202;52.536;6.042;2022-11-20T06:43:30;101308.87;;;-3.74;92.34
48404;BME280;34202;52.536;6.042;2022-11-20T06:48:31;101316.52;;;-3.72;92.76
48404;BME280;34202;52.536;6.042;2022-11-20T06:53:32;101323.47;;;-3.69;92.71
48404;BME280;34202;52.536;6.042;2022-11-20T06:58:34;101328.47;;;-3.66;93.03
48404;BME280;34202;52.536;6.042;2022-11-20T07:03:35;101333.84;;;-3.62;92.92
48404;BME280;34202;52.536;6.042;2022-11-20T07:08:35;101333.89;;;-3.59;93.03
48404;BME280;34202;52.536;6.042;2022-11-20T07:13:36;101330.17;;;-3.56;93.20
48404;BME280;34202;52.536;6.042;2022-11-20T07:18:36;101319.63;;;-3.54;93.19
48404;BME280;34202;52.536;6.042;2022-11-20T07:23:37;101315.67;;;-3.50;93.66
48404;BME280;34202;52.536;6.042;2022-11-20T07:28:38;101311.33;;;-3.46;93.49
48404;BME280;34202;52.536;6.042;2022-11-20T07:33:38;101305.80;;;-3.45;93.61
48404;BME280;34202;52.536;6.042;2022-11-20T07:38:38;101306.63;;;-3.43;93.61
48404;BME280;34202;52.536;6.042;2022-11-20T07:43:39;101300.53;;;-3.40;93.69
48404;BME280;34202;52.536;6.042;2022-11-20T07:48:39;101292.58;;;-3.34;93.85
48404;BME280;34202;52.536;6.042;2022-11-20T07:53:39;101288.05;;;-3.31;94.05
48404;BME280;34202;52.536;6.042;2022-11-20T07:58:40;101293.04;;;-3.27;94.29
48404;BME280;34202;52.536;6.042;2022-11-20T08:03:40;101286.54;;;-3.23;94.41
48404;BME280;34202;52.536;6.042;2022-11-20T08:08:40;101285.64;;;-3.19;94.51
48404;BME280;34202;52.536;6.042;2022-11-20T08:13:40;101285.78;;;-3.14;94.49
48404;BME280;34202;52.536;6.042;2022-11-20T08:19:00;101288.51;;;-3.07;95.03
48404;BME280;34202;52.536;6.042;2022-11-20T08:24:00;101280.16;;;-2.99;95.18
48404;BME280;34202;52.536;6.042;2022-11-20T08:29:00;101273.98;;;-2.90;95.41
48404;BME280;34202;52.536;6.042;2022-11-20T08:34:01;101263.05;;;-2.83;95.37
48404;BME280;34202;52.536;6.042;2022-11-20T08:39:02;101258.06;;;-2.73;95.71
48404;BME280;34202;52.536;6.042;2022-11-20T08:44:04;101256.69;;;-2.64;95.79
48404;BME280;34202;52.536;6.042;2022-11-20T08:49:06;101245.11;;;-2.53;96.04
48404;BME280;34202;52.536;6.042;2022-11-20T08:54:07;101248.22;;;-2.42;96.03
48404;BME280;34202;52.536;6.042;2022-11-20T08:59:08;101248.70;;;-2.31;95.71
48404;BME280;34202;52.536;6.042;2022-11-20T09:04:08;101246.80;;;-2.21;96.00
48404;BME280;34202;52.536;6.042;2022-11-20T09:09:08;101246.52;;;-2.10;96.06
48404;BME280;34202;52.536;6.042;2022-11-20T09:14:08;101241.29;;;-1.98;96.03
48404;BME280;34202;52.536;6.042;2022-11-20T09:19:09;101241.05;;;-1.86;96.26
48404;BME280;34202;52.536;6.042;2022-11-20T09:24:09;101237.13;;;-1.75;96.20
48404;BME280;34202;52.536;6.042;2022-11-20T09:29:10;101235.36;;;-1.62;96.41
48404;BME280;34202;52.536;6.042;2022-11-20T09:34:10;101224.67;;;-1.50;96.18
48404;BME280;34202;52.536;6.042;2022-11-20T09:39:11;101228.89;;;-1.37;96.21
48404;BME280;34202;52.536;6.042;2022-11-20T09:44:27;101228.13;;;-1.24;96.18
48404;BME280;34202;52.536;6.042;2022-11-20T09:49:57;101219.90;;;-1.10;96.22
48404;BME280;34202;52.536;6.042;2022-11-20T09:55:02;101211.91;;;-0.95;96.06
48404;BME280;34202;52.536;6.042;2022-11-20T10:00:05;101201.23;;;-0.82;96.12
48404;BME280;34202;52.536;6.042;2022-11-20T10:05:12;101197.48;;;-0.67;96.00
48404;BME280;34202;52.536;6.042;2022-11-20T10:31:48;101174.70;;;-0.10;94.08
48404;BME280;34202;52.536;6.042;2022-11-20T10:36:55;101167.98;;;0.02;93.73
48404;BME280;34202;52.536;6.042;2022-11-20T10:41:56;101151.52;;;0.14;93.45
48404;BME280;34202;52.536;6.042;2022-11-20T10:46:58;101148.06;;;0.27;93.10
48404;BME280;34202;52.536;6.042;2022-11-20T10:52:02;101146.97;;;0.38;92.71
48404;BME280;34202;52.536;6.042;2022-11-20T10:57:47;101143.83;;;0.50;92.24
48404;BME280;34202;52.536;6.042;2022-11-20T11:02:53;101146.69;;;0.66;92.58
48404;BME280;34202;52.536;6.042;2022-11-20T11:07:56;101140.77;;;0.81;92.71
48404;BME280;34202;52.536;6.042;2022-11-20T11:12:57;101138.48;;;0.97;92.57
48404;BME280;34202;52.536;6.042;2022-11-20T11:17:57;101129.01;;;1.13;92.82
48404;BME280;34202;52.536;6.042;2022-11-20T11:22:59;101120.06;;;1.30;93.03
48404;BME280;34202;52.536;6.042;2022-11-20T11:33:06;101095.21;;;1.59;93.66
48404;BME280;34202;52.536;6.042;2022-11-20T11:38:21;101092.41;;;1.73;93.93
48404;BME280;34202;52.536;6.042;2022-11-20T11:43:25;101079.08;;;1.85;93.68
48404;BME280;34202;52.536;6.042;2022-11-20T11:54:09;101062.61;;;2.08;93.77
48404;BME280;34202;52.536;6.042;2022-11-20T11:59:21;101063.89;;;2.18;93.96
48404;BME280;34202;52.536;6.042;2022-11-20T12:10:15;101063.28;;;2.35;93.67
48404;BME280;34202;52.536;6.042;2022-11-20T12:15:25;101053.42;;;2.41;93.63
48404;BME280;34202;52.536;6.042;2022-11-20T12:20:32;101038.08;;;2.48;93.58
48404;BME280;34202;52.536;6.042;2022-11-20T12:25:36;101033.38;;;2.55;93.63
48404;BME280;34202;52.536;6.042;2022-11-20T12:30:57;101017.64;;;2.61;93.32
48404;BME280;34202;52.536;6.042;2022-11-20T12:36:10;101009.02;;;2.68;93.44
48404;BME280;34202;52.536;6.042;2022-11-20T12:41:42;100996.06;;;2.75;93.45
48404;BME280;34202;52.536;6.042;2022-11-20T12:47:24;100995.30;;;2.82;93.09
48404;BME280;34202;52.536;6.042;2022-11-20T12:58:13;100973.70;;;2.92;92.90
48404;BME280;34202;52.536;6.042;2022-11-20T13:03:37;100964.47;;;2.97;92.85
48404;BME280;34202;52.536;6.042;2022-11-20T13:08:40;100961.34;;;3.01;92.79
48404;BME280;34202;52.536;6.042;2022-11-20T13:14:18;100959.40;;;3.04;92.50
48404;BME280;34202;52.536;6.042;2022-11-20T13:19:19;100950.63;;;3.08;92.46
48404;BME280;34202;52.536;6.042;2022-11-20T13:29:24;100925.41;;;3.15;92.20
48404;BME280;34202;52.536;6.042;2022-11-20T13:34:27;100923.23;;;3.17;91.81
48404;BME280;34202;52.536;6.042;2022-11-20T13:39:35;100908.45;;;3.17;91.60
48404;BME280;34202;52.536;6.042;2022-11-20T13:44:43;100902.27;;;3.17;91.74
48404;BME280;34202;52.536;6.042;2022-11-20T13:49:44;100894.83;;;3.20;91.81
48404;BME280;34202;52.536;6.042;2022-11-20T13:54:57;100883.70;;;3.22;91.88
48404;BME280;34202;52.536;6.042;2022-11-20T14:00:16;100881.35;;;3.23;91.69
48404;BME280;34202;52.536;6.042;2022-11-20T14:05:20;100880.81;;;3.23;91.59
48404;BME280;34202;52.536;6.042;2022-11-20T14:10:25;100879.54;;;3.20;91.22
48404;BME280;34202;52.536;6.042;2022-11-20T14:20:29;100855.37;;;3.18;90.94
48404;BME280;34202;52.536;6.042;2022-11-20T14:25:31;100844.40;;;3.15;90.58
48404;BME280;34202;52.536;6.042;2022-11-20T14:30:43;100837.39;;;3.11;90.25
48404;BME280;34202;52.536;6.042;2022-11-20T14:35:46;100820.36;;;3.06;90.09
48404;BME280;34202;52.536;6.042;2022-11-20T14:40:47;100817.30;;;3.02;89.98
48404;BME280;34202;52.536;6.042;2022-11-20T14:45:54;100808.91;;;2.99;90.24
48404;BME280;34202;52.536;6.042;2022-11-20T14:50:55;100807.26;;;2.96;90.14
48404;BME280;34202;52.536;6.042;2022-11-20T14:56:00;100800.45;;;2.93;89.88
48404;BME280;34202;52.536;6.042;2022-11-20T15:01:05;100787.60;;;2.89;89.86
48404;BME280;34202;52.536;6.042;2022-11-20T15:06:11;100776.47;;;2.90;90.25
48404;BME280;34202;52.536;6.042;2022-11-20T15:11:20;100765.63;;;2.91;90.05
48404;BME280;34202;52.536;6.042;2022-11-20T15:16:23;100762.91;;;2.92;90.16
48404;BME280;34202;52.536;6.042;2022-11-20T15:21:24;100754.20;;;2.93;90.05
48404;BME280;34202;52.536;6.042;2022-11-20T15:26:27;100751.17;;;2.95;90.40
48404;BME280;34202;52.536;6.042;2022-11-20T15:31:28;100755.98;;;2.95;90.47
48404;BME280;34202;52.536;6.042;2022-11-20T15:36:29;100753.89;;;2.94;90.41
48404;BME280;34202;52.536;6.042;2022-11-20T15:41:29;100751.96;;;2.93;90.76
48404;BME280;34202;52.536;6.042;2022-11-20T15:46:32;100748.29;;;2.91;91.01
48404;BME280;34202;52.536;6.042;2022-11-20T15:51:39;100743.86;;;2.88;90.94
48404;BME280;34202;52.536;6.042;2022-11-20T15:56:41;100739.98;;;2.85;91.35
48404;BME280;34202;52.536;6.042;2022-11-20T16:01:42;100734.70;;;2.82;91.81
48404;BME280;34202;52.536;6.042;2022-11-20T16:06:42;100732.10;;;2.81;91.92
48404;BME280;34202;52.536;6.042;2022-11-20T16:11:43;100726.52;;;2.78;92.19
48404;BME280;34202;52.536;6.042;2022-11-20T16:16:43;100717.27;;;2.75;92.51
48404;BME280;34202;52.536;6.042;2022-11-20T16:21:44;100701.36;;;2.72;92.74
48404;BME280;34202;52.536;6.042;2022-11-20T16:26:45;100694.77;;;2.70;92.88
48404;BME280;34202;52.536;6.042;2022-11-20T16:31:45;100690.88;;;2.67;93.25
48404;BME280;34202;52.536;6.042;2022-11-20T16:36:45;100691.29;;;2.64;93.46
48404;BME280;34202;52.536;6.042;2022-11-20T16:41:46;100689.48;;;2.62;93.58
48404;BME280;34202;52.536;6.042;2022-11-20T16:46:46;100688.41;;;2.61;93.65
48404;BME280;34202;52.536;6.042;2022-11-20T16:51:46;100685.81;;;2.60;94.11
48404;BME280;34202;52.536;6.042;2022-11-20T16:56:47;100688.48;;;2.58;94.10
48404;BME280;34202;52.536;6.042;2022-11-20T17:01:47;100687.05;;;2.57;94.52
48404;BME280;34202;52.536;6.042;2022-11-20T17:06:48;100685.77;;;2.54;94.40
48404;BME280;34202;52.536;6.042;2022-11-20T17:11:49;100686.76;;;2.48;94.38
48404;BME280;34202;52.536;6.042;2022-11-20T17:16:49;100676.55;;;2.41;94.58
48404;BME280;34202;52.536;6.042;2022-11-20T17:21:49;100673.89;;;2.35;94.51
48404;BME280;34202;52.536;6.042;2022-11-20T17:26:50;100667.65;;;2.28;94.98
48404;BME280;34202;52.536;6.042;2022-11-20T17:31:50;100665.49;;;2.22;94.90
48404;BME280;34202;52.536;6.042;2022-11-20T17:36:51;100664.62;;;2.12;94.71
48404;BME280;34202;52.536;6.042;2022-11-20T17:41:51;100660.86;;;2.03;94.66
48404;BME280;34202;52.536;6.042;2022-11-20T17:47:14;100650.66;;;1.92;94.64
48404;BME280;34202;52.536;6.042;2022-11-20T17:52:15;100645.73;;;1.84;94.64
48404;BME280;34202;52.536;6.042;2022-11-20T17:57:15;100642.21;;;1.78;94.86
48404;BME280;34202;52.536;6.042;2022-11-20T18:02:34;100636.45;;;1.71;95.07
48404;BME280;34202;52.536;6.042;2022-11-20T18:07:35;100635.25;;;1.62;94.98
48404;BME280;34202;52.536;6.042;2022-11-20T18:12:36;100627.71;;;1.54;95.29
48404;BME280;34202;52.536;6.042;2022-11-20T18:17:37;100617.58;;;1.45;95.28
48404;BME280;34202;52.536;6.042;2022-11-20T18:22:37;100618.53;;;1.39;95.55
48404;BME280;34202;52.536;6.042;2022-11-20T18:27:37;100611.27;;;1.33;95.79
48404;BME280;34202;52.536;6.042;2022-11-20T18:32:38;100605.61;;;1.29;96.05
48404;BME280;34202;52.536;6.042;2022-11-20T18:37:38;100596.55;;;1.25;96.24
48404;BME280;34202;52.536;6.042;2022-11-20T18:42:38;100584.70;;;1.20;96.35
48404;BME280;34202;52.536;6.042;2022-11-20T18:47:57;100573.47;;;1.14;96.63
48404;BME280;34202;52.536;6.042;2022-11-20T18:52:57;100574.88;;;1.10;97.08
48404;BME280;34202;52.536;6.042;2022-11-20T18:57:58;100575.45;;;1.08;97.28
48404;BME280;34202;52.536;6.042;2022-11-20T19:02:58;100580.62;;;1.08;97.58
48404;BME280;34202;52.536;6.042;2022-11-20T19:07:58;100585.15;;;1.11;97.73
48404;BME280;34202;52.536;6.042;2022-11-20T19:12:58;100588.95;;;1.11;97.95
48404;BME280;34202;52.536;6.042;2022-11-20T19:17:59;100586.16;;;1.10;97.84
48404;BME280;34202;52.536;6.042;2022-11-20T19:23:00;100591.23;;;1.08;97.93
48404;BME280;34202;52.536;6.042;2022-11-20T19:28:00;100593.44;;;1.08;98.24
48404;BME280;34202;52.536;6.042;2022-11-20T19:33:01;100591.39;;;1.03;98.27
48404;BME280;34202;52.536;6.042;2022-11-20T19:38:01;100594.42;;;1.02;98.35
48404;BME280;34202;52.536;6.042;2022-11-20T19:43:01;100594.06;;;1.02;98.65
48404;BME280;34202;52.536;6.042;2022-11-20T19:48:03;100592.44;;;1.00;98.76
48404;BME280;34202;52.536;6.042;2022-11-20T19:53:03;100593.57;;;0.99;98.73
48404;BME280;34202;52.536;6.042;2022-11-20T19:58:04;100593.88;;;0.97;98.95
48404;BME280;34202;52.536;6.042;2022-11-20T20:03:04;100600.33;;;1.00;99.06
48404;BME280;34202;52.536;6.042;2022-11-20T20:08:04;100594.45;;;1.03;99.32
48404;BME280;34202;52.536;6.042;2022-11-20T20:13:05;100596.40;;;1.05;99.27
48404;BME280;34202;52.536;6.042;2022-11-20T20:18:05;100599.36;;;1.05;99.23
48404;BME280;34202;52.536;6.042;2022-11-20T20:23:05;100602.27;;;1.06;99.17
48404;BME280;34202;52.536;6.042;2022-11-20T20:28:06;100598.21;;;1.07;99.34
48404;BME280;34202;52.536;6.042;2022-11-20T20:33:07;100587.48;;;1.04;99.41
48404;BME280;34202;52.536;6.042;2022-11-20T20:38:07;100571.19;;;1.00;99.43
48404;BME280;34202;52.536;6.042;2022-11-20T20:43:08;100569.40;;;0.98;99.67
48404;BME280;34202;52.536;6.042;2022-11-20T20:48:08;100573.86;;;0.99;99.58
48404;BME280;34202;52.536;6.042;2022-11-20T20:53:09;100584.95;;;1.01;99.98
48404;BME280;34202;52.536;6.042;2022-11-20T20:58:09;100590.84;;;1.03;99.97
48404;BME280;34202;52.536;6.042;2022-11-20T21:03:09;100597.19;;;1.07;99.99
48404;BME280;34202;52.536;6.042;2022-11-20T21:08:10;100604.81;;;1.09;99.93
48404;BME280;34202;52.536;6.042;2022-11-20T21:13:22;100614.05;;;1.05;99.88
48404;BME280;34202;52.536;6.042;2022-11-20T21:18:23;100611.05;;;1.02;99.90
48404;BME280;34202;52.536;6.042;2022-11-20T21:23:24;100602.17;;;0.99;100.00
48404;BME280;34202;52.536;6.042;2022-11-20T21:28:24;100606.45;;;0.99;100.00
48404;BME280;34202;52.536;6.042;2022-11-20T21:33:25;100612.95;;;0.99;100.00
48404;BME280;34202;52.536;6.042;2022-11-20T21:38:25;100619.17;;;1.00;100.00
48404;BME280;34202;52.536;6.042;2022-11-20T21:43:26;100630.41;;;1.02;100.00
48404;BME280;34202;52.536;6.042;2022-11-20T21:48:27;100628.98;;;1.01;100.00
48404;BME280;34202;52.536;6.042;2022-11-20T21:53:28;100636.30;;;0.95;100.00
48404;BME280;34202;52.536;6.042;2022-11-20T21:58:29;100637.87;;;0.96;100.00
48404;BME280;34202;52.536;6.042;2022-11-20T22:03:30;100643.71;;;0.96;100.00
48404;BME280;34202;52.536;6.042;2022-11-20T22:08:30;100641.16;;;0.97;100.00
48404;BME280;34202;52.536;6.042;2022-11-20T22:13:30;100648.98;;;0.95;100.00
48404;BME280;34202;52.536;6.042;2022-11-20T22:18:51;100654.13;;;0.95;100.00
48404;BME280;34202;52.536;6.042;2022-11-20T22:23:52;100655.58;;;0.93;100.00
48404;BME280;34202;52.536;6.042;2022-11-20T22:28:55;100653.69;;;0.93;100.00
48404;BME280;34202;52.536;6.042;2022-11-20T22:33:56;100655.14;;;0.99;100.00
48404;BME280;34202;52.536;6.042;2022-11-20T22:38:57;100658.61;;;1.04;100.00
48404;BME280;34202;52.536;6.042;2022-11-20T22:44:00;100665.46;;;1.08;100.00
48404;BME280;34202;52.536;6.042;2022-11-20T22:49:03;100677.13;;;1.12;100.00
48404;BME280;34202;52.536;6.042;2022-11-20T22:54:05;100687.08;;;1.13;100.00
48404;BME280;34202;52.536;6.042;2022-11-20T22:59:05;100699.13;;;1.10;100.00
48404;BME280;34202;52.536;6.042;2022-11-20T23:04:08;100697.97;;;1.07;100.00
48404;BME280;34202;52.536;6.042;2022-11-20T23:09:09;100707.58;;;1.07;100.00
48404;BME280;34202;52.536;6.042;2022-11-20T23:14:13;100717.00;;;1.03;100.00
48404;BME280;34202;52.536;6.042;2022-11-20T23:19:14;100719.39;;;0.95;100.00
48404;BME280;34202;52.536;6.042;2022-11-20T23:24:14;100716.44;;;0.86;100.00
48404;BME280;34202;52.536;6.042;2022-11-20T23:29:15;100713.35;;;0.79;100.00
48404;BME280;34202;52.536;6.042;2022-11-20T23:34:15;100715.05;;;0.78;100.00
48404;BME280;34202;52.536;6.042;2022-11-20T23:39:15;100718.77;;;0.81;100.00
48404;BME280;34202;52.536;6.042;2022-11-20T23:44:16;100720.09;;;0.84;100.00
48404;BME280;34202;52.536;6.042;2022-11-20T23:49:16;100722.98;;;0.83;100.00
48404;BME280;34202;52.536;6.042;2022-11-20T23:54:16;100723.10;;;0.82;100.00
48404;BME280;34202;52.536;6.042;2022-11-20T23:59:17;100721.67;;;0.85;100.00
